sensor_id;sensor_type;location;lat;lon;timestamp;pressure;altitude;pressure_sealevel;temperature;humidity
6506;BME280;3286;49.858;8.768;2023-03-15T00:00:05;98830.44;;;5.85;57.23
6506;BME280;3286;49.858;8.768;2023-03-15T00:02:32;98840.66;;;5.67;57.36
6506;BME280;3286;49.858;8.768;2023-03-15T00:04:58;98850.56;;;5.85;56.70
6506;BME280;3286;49.858;8.768;2023-03-15T00:07:25;98846.78;;;5.35;58.03
6506;BME280;3286;49.858;8.768;2023-03-15T00:09:52;98852.16;;;5.22;57.97
6506;BME280;3286;49.858;8.768;2023-03-15T00:12:19;98842.78;;;5.19;57.81
6506;BME280;3286;49.858;8.768;2023-03-15T00:14:48;98854.50;;;5.36;57.82
6506;BME280;3286;49.858;8.768;2023-03-15T00:17:15;98861.59;;;5.25;57.65
6506;BME280;3286;49.858;8.768;2023-03-15T00:19:42;98855.50;;;5.57;56.78
6506;BME280;3286;49.858;8.768;2023-03-15T00:22:10;98857.69;;;5.40;56.33
6506;BME280;3286;49.858;8.768;2023-03-15T00:24:36;98865.50;;;5.30;57.31
6506;BME280;3286;49.858;8.768;2023-03-15T00:27:03;98867.75;;;4.79;57.97
6506;BME280;3286;49.858;8.768;2023-03-15T00:29:30;98873.31;;;4.98;57.72
6506;BME280;3286;49.858;8.768;2023-03-15T00:31:58;98875.72;;;5.33;57.03
6506;BME280;3286;49.858;8.768;2023-03-15T00:34:25;98882.13;;;5.29;56.55
6506;BME280;3286;49.858;8.768;2023-03-15T00:36:52;98893.03;;;5.13;57.54
6506;BME280;3286;49.858;8.768;2023-03-15T00:39:19;98897.25;;;4.93;58.17
6506;BME280;3286;49.858;8.768;2023-03-15T00:41:46;98895.53;;;5.15;57.07
6506;BME280;3286;49.858;8.768;2023-03-15T00:44:12;98902.50;;;4.47;58.58
6506;BME280;3286;49.858;8.768;2023-03-15T00:46:39;98904.66;;;4.54;59.02
6506;BME280;3286;49.858;8.768;2023-03-15T00:49:07;98908.81;;;5.34;56.61
6506;BME280;3286;49.858;8.768;2023-03-15T00:51:34;98913.66;;;4.95;57.80
6506;BME280;3286;49.858;8.768;2023-03-15T00:54:01;98917.59;;;4.67;58.56
6506;BME280;3286;49.858;8.768;2023-03-15T00:56:28;98909.75;;;4.32;57.98
6506;BME280;3286;49.858;8.768;2023-03-15T00:58:56;98913.56;;;4.40;58.38
6506;BME280;3286;49.858;8.768;2023-03-15T01:01:24;98912.38;;;4.44;58.10
6506;BME280;3286;49.858;8.768;2023-03-15T01:03:51;98916.50;;;4.12;58.15
6506;BME280;3286;49.858;8.768;2023-03-15T01:06:21;98918.56;;;4.66;57.09
6506;BME280;3286;49.858;8.768;2023-03-15T01:08:48;98917.94;;;4.85;56.41
6506;BME280;3286;49.858;8.768;2023-03-15T01:11:17;98921.28;;;4.41;57.33
6506;BME280;3286;49.858;8.768;2023-03-15T01:13:45;98916.66;;;4.56;56.53
6506;BME280;3286;49.858;8.768;2023-03-15T01:16:13;98926.59;;;4.17;58.12
6506;BME280;3286;49.858;8.768;2023-03-15T01:18:41;98922.59;;;4.35;57.66
6506;BME280;3286;49.858;8.768;2023-03-15T01:21:08;98934.00;;;4.57;56.95
6506;BME280;3286;49.858;8.768;2023-03-15T01:23:37;98934.59;;;4.38;57.05
6506;BME280;3286;49.858;8.768;2023-03-15T01:26:06;98939.44;;;4.09;56.93
6506;BME280;3286;49.858;8.768;2023-03-15T01:28:33;98946.47;;;4.19;57.33
6506;BME280;3286;49.858;8.768;2023-03-15T01:30:59;98943.38;;;4.26;57.03
6506;BME280;3286;49.858;8.768;2023-03-15T01:33:26;98957.25;;;3.68;59.33
6506;BME280;3286;49.858;8.768;2023-03-15T01:35:57;98958.09;;;3.80;59.16
6506;BME280;3286;49.858;8.768;2023-03-15T01:38:25;98957.53;;;3.87;58.32
6506;BME280;3286;49.858;8.768;2023-03-15T01:40:53;98963.41;;;4.02;57.70
6506;BME280;3286;49.858;8.768;2023-03-15T01:43:20;98965.56;;;4.09;56.94
6506;BME280;3286;49.858;8.768;2023-03-15T01:46:05;98966.81;;;4.39;56.79
6506;BME280;3286;49.858;8.768;2023-03-15T01:48:38;98964.81;;;3.95;58.09
6506;BME280;3286;49.858;8.768;2023-03-15T01:51:12;98962.84;;;4.10;57.66
6506;BME280;3286;49.858;8.768;2023-03-15T01:53:43;98954.50;;;3.69;58.68
6506;BME280;3286;49.858;8.768;2023-03-15T01:56:13;98957.13;;;3.69;58.78
6506;BME280;3286;49.858;8.768;2023-03-15T01:58:42;98953.91;;;4.01;57.63
6506;BME280;3286;49.858;8.768;2023-03-15T02:01:11;98956.13;;;3.95;58.17
6506;BME280;3286;49.858;8.768;2023-03-15T02:03:42;98963.38;;;4.38;56.75
6506;BME280;3286;49.858;8.768;2023-03-15T02:06:13;98977.16;;;4.29;56.37
6506;BME280;3286;49.858;8.768;2023-03-15T02:08:45;98976.44;;;4.27;56.88
6506;BME280;3286;49.858;8.768;2023-03-15T02:11:15;98977.69;;;4.10;57.11
6506;BME280;3286;49.858;8.768;2023-03-15T02:13:43;98979.28;;;3.88;58.22
6506;BME280;3286;49.858;8.768;2023-03-15T02:16:10;98988.13;;;3.50;58.69
6506;BME280;3286;49.858;8.768;2023-03-15T02:18:37;98988.69;;;3.66;59.47
6506;BME280;3286;49.858;8.768;2023-03-15T02:21:13;98986.50;;;3.84;58.62
6506;BME280;3286;49.858;8.768;2023-03-15T02:23:43;98979.63;;;3.83;58.63
6506;BME280;3286;49.858;8.768;2023-03-15T02:26:20;98976.50;;;3.78;58.04
6506;BME280;3286;49.858;8.768;2023-03-15T02:28:51;98977.69;;;3.74;57.89
6506;BME280;3286;49.858;8.768;2023-03-15T02:31:19;98970.84;;;3.84;58.00
6506;BME280;3286;49.858;8.768;2023-03-15T02:33:48;98976.91;;;3.60;58.55
6506;BME280;3286;49.858;8.768;2023-03-15T02:36:18;98973.84;;;3.91;58.09
6506;BME280;3286;49.858;8.768;2023-03-15T02:38:45;98976.56;;;3.41;59.30
6506;BME280;3286;49.858;8.768;2023-03-15T02:41:15;98979.88;;;3.91;57.99
6506;BME280;3286;49.858;8.768;2023-03-15T02:43:44;98971.34;;;4.01;56.99
6506;BME280;3286;49.858;8.768;2023-03-15T02:46:14;98977.91;;;3.71;57.40
6506;BME280;3286;49.858;8.768;2023-03-15T02:48:41;98983.78;;;3.61;57.63
6506;BME280;3286;49.858;8.768;2023-03-15T02:51:16;98989.00;;;3.37;58.62
6506;BME280;3286;49.858;8.768;2023-03-15T02:53:45;98984.81;;;3.72;57.19
6506;BME280;3286;49.858;8.768;2023-03-15T02:56:11;98993.50;;;3.59;57.72
6506;BME280;3286;49.858;8.768;2023-03-15T02:58:39;98996.53;;;3.66;57.29
6506;BME280;3286;49.858;8.768;2023-03-15T03:01:06;99001.47;;;3.21;59.11
6506;BME280;3286;49.858;8.768;2023-03-15T03:03:35;98994.56;;;4.05;56.91
6506;BME280;3286;49.858;8.768;2023-03-15T03:06:02;98999.97;;;3.67;57.00
6506;BME280;3286;49.858;8.768;2023-03-15T03:08:28;98997.19;;;3.32;57.86
6506;BME280;3286;49.858;8.768;2023-03-15T03:10:55;99002.19;;;3.84;56.92
6506;BME280;3286;49.858;8.768;2023-03-15T03:13:21;98994.41;;;4.07;54.97
6506;BME280;3286;49.858;8.768;2023-03-15T03:15:48;99002.25;;;3.71;57.00
6506;BME280;3286;49.858;8.768;2023-03-15T03:18:22;99004.84;;;3.47;56.86
6506;BME280;3286;49.858;8.768;2023-03-15T03:20:54;99015.34;;;3.21;58.34
6506;BME280;3286;49.858;8.768;2023-03-15T03:23:21;99018.84;;;3.46;57.34
6506;BME280;3286;49.858;8.768;2023-03-15T03:25:50;99023.97;;;3.47;57.20
6506;BME280;3286;49.858;8.768;2023-03-15T03:28:18;99024.81;;;3.72;56.41
6506;BME280;3286;49.858;8.768;2023-03-15T03:30:45;99042.50;;;3.69;56.82
6506;BME280;3286;49.858;8.768;2023-03-15T03:33:11;99037.41;;;3.04;57.00
6506;BME280;3286;49.858;8.768;2023-03-15T03:35:38;99044.25;;;3.44;57.44
6506;BME280;3286;49.858;8.768;2023-03-15T03:38:07;99048.47;;;3.71;56.09
6506;BME280;3286;49.858;8.768;2023-03-15T03:40:34;99048.34;;;3.35;57.16
6506;BME280;3286;49.858;8.768;2023-03-15T03:43:00;99051.22;;;3.43;57.37
6506;BME280;3286;49.858;8.768;2023-03-15T03:45:27;99052.31;;;3.28;57.28
6506;BME280;3286;49.858;8.768;2023-03-15T03:47:53;99057.34;;;3.68;55.97
6506;BME280;3286;49.858;8.768;2023-03-15T03:50:20;99057.66;;;2.61;60.12
6506;BME280;3286;49.858;8.768;2023-03-15T03:52:47;99054.66;;;3.07;58.40
6506;BME280;3286;49.858;8.768;2023-03-15T03:55:15;99056.53;;;2.92;58.81
6506;BME280;3286;49.858;8.768;2023-03-15T03:57:42;99061.16;;;2.88;58.73
6506;BME280;3286;49.858;8.768;2023-03-15T04:00:11;99060.38;;;2.99;58.68
6506;BME280;3286;49.858;8.768;2023-03-15T04:02:39;99061.31;;;3.11;57.94
6506;BME280;3286;49.858;8.768;2023-03-15T04:05:07;99063.53;;;3.54;56.67
6506;BME280;3286;49.858;8.768;2023-03-15T04:07:34;99072.91;;;3.32;57.46
6506;BME280;3286;49.858;8.768;2023-03-15T04:10:00;99071.53;;;3.40;57.11
6506;BME280;3286;49.858;8.768;2023-03-15T04:12:28;99075.28;;;3.36;57.45
6506;BME280;3286;49.858;8.768;2023-03-15T04:14:55;99075.53;;;2.81;58.01
6506;BME280;3286;49.858;8.768;2023-03-15T04:17:21;99071.47;;;3.02;57.93
6506;BME280;3286;49.858;8.768;2023-03-15T04:19:48;99074.00;;;3.41;57.40
6506;BME280;3286;49.858;8.768;2023-03-15T04:22:15;99072.72;;;2.71;58.80
6506;BME280;3286;49.858;8.768;2023-03-15T04:24:41;99075.50;;;3.32;57.82
6506;BME280;3286;49.858;8.768;2023-03-15T04:27:08;99077.22;;;3.58;56.39
6506;BME280;3286;49.858;8.768;2023-03-15T04:29:40;99077.06;;;3.22;57.14
6506;BME280;3286;49.858;8.768;2023-03-15T04:32:08;99083.22;;;3.34;57.16
6506;BME280;3286;49.858;8.768;2023-03-15T04:34:34;99086.31;;;3.52;56.01
6506;BME280;3286;49.858;8.768;2023-03-15T04:37:03;99075.38;;;3.34;57.34
6506;BME280;3286;49.858;8.768;2023-03-15T04:39:30;99093.84;;;3.57;56.22
6506;BME280;3286;49.858;8.768;2023-03-15T04:41:56;99083.88;;;3.99;54.58
6506;BME280;3286;49.858;8.768;2023-03-15T04:44:23;99097.00;;;3.86;54.83
6506;BME280;3286;49.858;8.768;2023-03-15T04:46:52;99084.75;;;3.87;55.10
6506;BME280;3286;49.858;8.768;2023-03-15T04:49:19;99092.00;;;3.83;54.44
6506;BME280;3286;49.858;8.768;2023-03-15T04:51:45;99098.41;;;3.66;55.48
6506;BME280;3286;49.858;8.768;2023-03-15T04:54:12;99108.94;;;3.77;55.29
6506;BME280;3286;49.858;8.768;2023-03-15T04:56:38;99096.06;;;3.37;55.83
6506;BME280;3286;49.858;8.768;2023-03-15T04:59:06;99095.88;;;3.01;57.11
6506;BME280;3286;49.858;8.768;2023-03-15T05:01:33;99103.09;;;2.72;58.39
6506;BME280;3286;49.858;8.768;2023-03-15T05:04:01;99100.16;;;3.02;58.05
6506;BME280;3286;49.858;8.768;2023-03-15T05:06:28;99105.59;;;2.86;58.42
6506;BME280;3286;49.858;8.768;2023-03-15T05:08:55;99098.16;;;3.19;58.15
6506;BME280;3286;49.858;8.768;2023-03-15T05:11:21;99097.78;;;2.99;58.27
6506;BME280;3286;49.858;8.768;2023-03-15T05:13:48;99091.47;;;3.41;57.40
6506;BME280;3286;49.858;8.768;2023-03-15T05:16:15;99094.63;;;2.68;59.19
6506;BME280;3286;49.858;8.768;2023-03-15T05:18:41;99081.91;;;3.02;58.44
6506;BME280;3286;49.858;8.768;2023-03-15T05:21:11;99093.88;;;3.31;57.71
6506;BME280;3286;49.858;8.768;2023-03-15T05:23:38;99097.03;;;3.10;58.37
6506;BME280;3286;49.858;8.768;2023-03-15T05:26:05;99100.47;;;2.98;58.83
6506;BME280;3286;49.858;8.768;2023-03-15T05:28:32;99100.75;;;3.58;56.79
6506;BME280;3286;49.858;8.768;2023-03-15T05:30:58;99102.00;;;3.39;57.94
6506;BME280;3286;49.858;8.768;2023-03-15T05:33:27;99111.84;;;3.36;57.41
6506;BME280;3286;49.858;8.768;2023-03-15T05:35:53;99106.88;;;3.70;56.24
6506;BME280;3286;49.858;8.768;2023-03-15T05:38:24;99109.88;;;3.76;56.49
6506;BME280;3286;49.858;8.768;2023-03-15T05:40:52;99106.25;;;4.03;55.50
6506;BME280;3286;49.858;8.768;2023-03-15T05:43:19;99102.44;;;4.08;55.12
6506;BME280;3286;49.858;8.768;2023-03-15T05:45:45;99100.69;;;4.32;54.65
6506;BME280;3286;49.858;8.768;2023-03-15T05:48:13;99109.31;;;4.22;54.94
6506;BME280;3286;49.858;8.768;2023-03-15T05:50:40;99113.06;;;3.93;55.15
6506;BME280;3286;49.858;8.768;2023-03-15T05:53:06;99110.09;;;3.73;56.58
6506;BME280;3286;49.858;8.768;2023-03-15T05:55:34;99103.97;;;3.86;55.98
6506;BME280;3286;49.858;8.768;2023-03-15T05:58:01;99107.53;;;3.85;56.26
6506;BME280;3286;49.858;8.768;2023-03-15T06:00:28;99107.63;;;3.59;55.65
6506;BME280;3286;49.858;8.768;2023-03-15T06:02:54;99109.28;;;3.97;55.41
6506;BME280;3286;49.858;8.768;2023-03-15T06:05:21;99110.56;;;3.41;58.00
6506;BME280;3286;49.858;8.768;2023-03-15T06:07:48;99124.75;;;4.00;55.71
6506;BME280;3286;49.858;8.768;2023-03-15T06:10:15;99124.13;;;3.59;56.10
6506;BME280;3286;49.858;8.768;2023-03-15T06:12:42;99131.91;;;3.85;55.72
6506;BME280;3286;49.858;8.768;2023-03-15T06:15:10;99134.38;;;4.00;55.36
6506;BME280;3286;49.858;8.768;2023-03-15T06:17:36;99136.28;;;3.85;56.25
6506;BME280;3286;49.858;8.768;2023-03-15T06:20:04;99143.06;;;4.25;55.21
6506;BME280;3286;49.858;8.768;2023-03-15T06:22:31;99140.06;;;4.18;55.12
6506;BME280;3286;49.858;8.768;2023-03-15T06:24:58;99147.97;;;4.29;55.07
6506;BME280;3286;49.858;8.768;2023-03-15T06:27:24;99147.84;;;3.56;56.88
6506;BME280;3286;49.858;8.768;2023-03-15T06:29:52;99155.59;;;4.32;55.46
6506;BME280;3286;49.858;8.768;2023-03-15T06:32:20;99158.19;;;4.08;54.91
6506;BME280;3286;49.858;8.768;2023-03-15T06:34:47;99170.59;;;4.17;55.23
6506;BME280;3286;49.858;8.768;2023-03-15T06:37:13;99159.47;;;4.27;55.33
6506;BME280;3286;49.858;8.768;2023-03-15T06:39:40;99160.47;;;4.13;55.93
6506;BME280;3286;49.858;8.768;2023-03-15T06:42:09;99182.28;;;4.25;55.11
6506;BME280;3286;49.858;8.768;2023-03-15T06:44:37;99175.41;;;3.86;57.12
6506;BME280;3286;49.858;8.768;2023-03-15T06:47:06;99176.22;;;4.24;56.48
6506;BME280;3286;49.858;8.768;2023-03-15T06:49:33;99175.41;;;3.73;57.76
6506;BME280;3286;49.858;8.768;2023-03-15T06:52:00;99174.81;;;4.07;56.52
6506;BME280;3286;49.858;8.768;2023-03-15T06:54:27;99183.22;;;3.99;57.00
6506;BME280;3286;49.858;8.768;2023-03-15T06:56:54;99182.03;;;4.03;57.23
6506;BME280;3286;49.858;8.768;2023-03-15T06:59:21;99192.47;;;3.66;58.64
6506;BME280;3286;49.858;8.768;2023-03-15T07:01:48;99185.13;;;4.22;57.62
6506;BME280;3286;49.858;8.768;2023-03-15T07:04:16;99191.31;;;4.20;57.80
6506;BME280;3286;49.858;8.768;2023-03-15T07:06:42;99188.97;;;3.91;58.02
6506;BME280;3286;49.858;8.768;2023-03-15T07:09:09;99188.03;;;3.92;57.96
6506;BME280;3286;49.858;8.768;2023-03-15T07:11:36;99195.44;;;4.36;55.84
6506;BME280;3286;49.858;8.768;2023-03-15T07:14:02;99192.84;;;3.86;57.64
6506;BME280;3286;49.858;8.768;2023-03-15T07:16:30;99193.63;;;3.75;57.25
6506;BME280;3286;49.858;8.768;2023-03-15T07:18:57;99202.22;;;4.14;55.86
6506;BME280;3286;49.858;8.768;2023-03-15T07:21:25;99199.22;;;4.32;55.62
6506;BME280;3286;49.858;8.768;2023-03-15T07:23:52;99190.88;;;3.76;58.14
6506;BME280;3286;49.858;8.768;2023-03-15T07:26:19;99196.09;;;2.99;58.47
6506;BME280;3286;49.858;8.768;2023-03-15T07:28:46;99202.59;;;3.71;57.72
6506;BME280;3286;49.858;8.768;2023-03-15T07:31:13;99205.44;;;3.68;58.00
6506;BME280;3286;49.858;8.768;2023-03-15T07:33:40;99199.72;;;3.87;58.45
6506;BME280;3286;49.858;8.768;2023-03-15T07:36:07;99207.31;;;3.27;59.72
6506;BME280;3286;49.858;8.768;2023-03-15T07:38:35;99218.28;;;2.79;60.47
6506;BME280;3286;49.858;8.768;2023-03-15T07:41:02;99214.41;;;3.38;59.46
6506;BME280;3286;49.858;8.768;2023-03-15T07:43:29;99221.59;;;3.21;59.84
6506;BME280;3286;49.858;8.768;2023-03-15T07:45:56;99219.31;;;3.81;58.88
6506;BME280;3286;49.858;8.768;2023-03-15T07:48:23;99223.50;;;3.58;60.24
6506;BME280;3286;49.858;8.768;2023-03-15T07:50:49;99214.56;;;3.99;59.08
6506;BME280;3286;49.858;8.768;2023-03-15T07:53:16;99216.78;;;3.80;59.68
6506;BME280;3286;49.858;8.768;2023-03-15T07:55:45;99214.44;;;4.14;59.45
6506;BME280;3286;49.858;8.768;2023-03-15T07:58:12;99229.03;;;3.40;61.94
6506;BME280;3286;49.858;8.768;2023-03-15T08:00:39;99225.56;;;3.66;59.94
6506;BME280;3286;49.858;8.768;2023-03-15T08:03:06;99232.47;;;3.28;61.39
6506;BME280;3286;49.858;8.768;2023-03-15T08:05:32;99230.13;;;4.14;59.70
6506;BME280;3286;49.858;8.768;2023-03-15T08:07:59;99227.88;;;3.83;59.50
6506;BME280;3286;49.858;8.768;2023-03-15T08:10:26;99242.81;;;3.55;61.20
6506;BME280;3286;49.858;8.768;2023-03-15T08:12:54;99239.16;;;3.32;61.56
6506;BME280;3286;49.858;8.768;2023-03-15T08:15:21;99231.34;;;3.45;60.93
6506;BME280;3286;49.858;8.768;2023-03-15T08:17:48;99231.00;;;4.01;60.32
6506;BME280;3286;49.858;8.768;2023-03-15T08:20:15;99243.75;;;3.93;59.82
6506;BME280;3286;49.858;8.768;2023-03-15T08:22:43;99242.81;;;3.94;60.39
6506;BME280;3286;49.858;8.768;2023-03-15T08:25:11;99253.06;;;3.45;61.79
6506;BME280;3286;49.858;8.768;2023-03-15T08:27:38;99254.16;;;4.56;58.36
6506;BME280;3286;49.858;8.768;2023-03-15T08:30:09;99263.66;;;3.70;60.00
6506;BME280;3286;49.858;8.768;2023-03-15T08:32:36;99262.25;;;3.38;61.53
6506;BME280;3286;49.858;8.768;2023-03-15T08:35:04;99268.31;;;3.39;61.67
6506;BME280;3286;49.858;8.768;2023-03-15T08:37:31;99271.94;;;2.83;62.32
6506;BME280;3286;49.858;8.768;2023-03-15T08:39:58;99277.25;;;2.54;63.75
6506;BME280;3286;49.858;8.768;2023-03-15T08:42:31;99270.72;;;2.88;62.77
6506;BME280;3286;49.858;8.768;2023-03-15T08:44:57;99268.00;;;4.08;60.62
6506;BME280;3286;49.858;8.768;2023-03-15T08:47:27;99278.03;;;3.62;61.17
6506;BME280;3286;49.858;8.768;2023-03-15T08:49:54;99277.97;;;3.90;60.28
6506;BME280;3286;49.858;8.768;2023-03-15T08:52:21;99278.38;;;3.71;62.44
6506;BME280;3286;49.858;8.768;2023-03-15T08:54:47;99279.22;;;4.72;59.71
6506;BME280;3286;49.858;8.768;2023-03-15T08:57:14;99290.78;;;4.81;58.93
6506;BME280;3286;49.858;8.768;2023-03-15T08:59:40;99293.25;;;4.95;58.65
6506;BME280;3286;49.858;8.768;2023-03-15T09:02:08;99289.91;;;5.17;57.74
6506;BME280;3286;49.858;8.768;2023-03-15T09:04:37;99297.19;;;5.01;58.31
6506;BME280;3286;49.858;8.768;2023-03-15T09:07:04;99302.78;;;5.20;57.56
6506;BME280;3286;49.858;8.768;2023-03-15T09:09:30;99309.63;;;4.86;59.08
6506;BME280;3286;49.858;8.768;2023-03-15T09:11:58;99316.81;;;4.08;61.51
6506;BME280;3286;49.858;8.768;2023-03-15T09:14:24;99301.78;;;3.72;61.99
6506;BME280;3286;49.858;8.768;2023-03-15T09:16:51;99306.88;;;3.87;61.37
6506;BME280;3286;49.858;8.768;2023-03-15T09:19:17;99319.97;;;4.00;62.36
6506;BME280;3286;49.858;8.768;2023-03-15T09:21:45;99324.44;;;3.59;63.66
6506;BME280;3286;49.858;8.768;2023-03-15T09:24:12;99321.53;;;4.15;61.92
6506;BME280;3286;49.858;8.768;2023-03-15T09:26:39;99319.81;;;4.40;61.32
6506;BME280;3286;49.858;8.768;2023-03-15T09:29:06;99329.88;;;4.33;62.27
6506;BME280;3286;49.858;8.768;2023-03-15T09:31:34;99323.31;;;4.65;61.84
6506;BME280;3286;49.858;8.768;2023-03-15T09:34:00;99327.56;;;4.29;62.00
6506;BME280;3286;49.858;8.768;2023-03-15T09:36:27;99328.09;;;4.21;62.61
6506;BME280;3286;49.858;8.768;2023-03-15T09:38:55;99336.25;;;5.04;60.55
6506;BME280;3286;49.858;8.768;2023-03-15T09:41:34;99329.28;;;4.91;61.91
6506;BME280;3286;49.858;8.768;2023-03-15T09:44:22;99331.81;;;4.93;61.71
6506;BME280;3286;49.858;8.768;2023-03-15T09:47:03;99341.13;;;4.97;60.96
6506;BME280;3286;49.858;8.768;2023-03-15T09:49:40;99347.09;;;4.62;61.65
6506;BME280;3286;49.858;8.768;2023-03-15T09:52:14;99352.44;;;4.85;61.56
6506;BME280;3286;49.858;8.768;2023-03-15T09:54:51;99355.31;;;5.06;59.46
6506;BME280;3286;49.858;8.768;2023-03-15T09:57:22;99353.09;;;4.38;61.64
6506;BME280;3286;49.858;8.768;2023-03-15T09:59:52;99357.72;;;4.09;62.03
6506;BME280;3286;49.858;8.768;2023-03-15T10:02:23;99348.06;;;4.35;61.69
6506;BME280;3286;49.858;8.768;2023-03-15T10:04:54;99360.47;;;4.57;61.03
6506;BME280;3286;49.858;8.768;2023-03-15T10:07:22;99362.44;;;5.53;59.88
6506;BME280;3286;49.858;8.768;2023-03-15T10:09:51;99362.25;;;5.78;59.21
6506;BME280;3286;49.858;8.768;2023-03-15T10:12:25;99360.44;;;6.26;58.14
6506;BME280;3286;49.858;8.768;2023-03-15T10:15:00;99372.31;;;5.25;58.85
6506;BME280;3286;49.858;8.768;2023-03-15T10:17:37;99363.22;;;4.93;60.64
6506;BME280;3286;49.858;8.768;2023-03-15T10:20:10;99370.13;;;4.44;62.66
6506;BME280;3286;49.858;8.768;2023-03-15T10:22:42;99371.41;;;5.37;59.50
6506;BME280;3286;49.858;8.768;2023-03-15T10:25:14;99369.06;;;5.81;59.56
6506;BME280;3286;49.858;8.768;2023-03-15T10:27:46;99358.88;;;7.24;56.47
6506;BME280;3286;49.858;8.768;2023-03-15T10:30:16;99362.88;;;7.82;53.58
6506;BME280;3286;49.858;8.768;2023-03-15T10:32:47;99365.41;;;7.30;54.40
6506;BME280;3286;49.858;8.768;2023-03-15T10:35:17;99354.19;;;7.82;53.50
6506;BME280;3286;49.858;8.768;2023-03-15T10:37:45;99359.03;;;7.87;52.95
6506;BME280;3286;49.858;8.768;2023-03-15T10:40:14;99358.56;;;8.03;53.48
6506;BME280;3286;49.858;8.768;2023-03-15T10:42:42;99354.19;;;8.75;51.72
6506;BME280;3286;49.858;8.768;2023-03-15T10:45:27;99360.78;;;7.22;53.00
6506;BME280;3286;49.858;8.768;2023-03-15T10:47:54;99358.50;;;7.50;54.31
6506;BME280;3286;49.858;8.768;2023-03-15T10:50:25;99360.63;;;6.00;58.67
6506;BME280;3286;49.858;8.768;2023-03-15T10:52:54;99356.03;;;7.16;57.04
6506;BME280;3286;49.858;8.768;2023-03-15T10:55:29;99359.06;;;7.33;55.26
6506;BME280;3286;49.858;8.768;2023-03-15T10:57:58;99355.59;;;7.86;53.63
6506;BME280;3286;49.858;8.768;2023-03-15T11:00:28;99351.88;;;8.20;53.10
6506;BME280;3286;49.858;8.768;2023-03-15T11:03:03;99353.59;;;7.57;52.29
6506;BME280;3286;49.858;8.768;2023-03-15T11:05:35;99357.72;;;7.17;54.08
6506;BME280;3286;49.858;8.768;2023-03-15T11:08:11;99358.47;;;7.62;53.42
6506;BME280;3286;49.858;8.768;2023-03-15T11:10:40;99353.66;;;7.67;52.54
6506;BME280;3286;49.858;8.768;2023-03-15T11:13:12;99369.25;;;8.32;51.86
6506;BME280;3286;49.858;8.768;2023-03-15T11:15:48;99365.19;;;8.49;50.06
6506;BME280;3286;49.858;8.768;2023-03-15T11:18:19;99367.91;;;8.38;50.60
6506;BME280;3286;49.858;8.768;2023-03-15T11:20:50;99369.19;;;7.70;52.18
6506;BME280;3286;49.858;8.768;2023-03-15T11:23:21;99379.50;;;7.29;53.54
6506;BME280;3286;49.858;8.768;2023-03-15T11:25:52;99374.28;;;7.18;53.68
6506;BME280;3286;49.858;8.768;2023-03-15T11:28:21;99376.03;;;8.56;51.13
6506;BME280;3286;49.858;8.768;2023-03-15T11:30:50;99362.72;;;9.57;48.15
6506;BME280;3286;49.858;8.768;2023-03-15T11:33:26;99371.19;;;8.30;50.54
6506;BME280;3286;49.858;8.768;2023-03-15T11:35:58;99376.28;;;7.58;50.20
6506;BME280;3286;49.858;8.768;2023-03-15T11:38:30;99381.31;;;8.56;49.94
6506;BME280;3286;49.858;8.768;2023-03-15T11:41:02;99377.94;;;8.95;49.33
6506;BME280;3286;49.858;8.768;2023-03-15T11:43:37;99386.28;;;8.28;49.13
6506;BME280;3286;49.858;8.768;2023-03-15T11:46:09;99384.41;;;6.67;53.00
6506;BME280;3286;49.858;8.768;2023-03-15T11:48:43;99375.31;;;8.02;50.51
6506;BME280;3286;49.858;8.768;2023-03-15T11:51:12;99375.63;;;8.30;49.05
6506;BME280;3286;49.858;8.768;2023-03-15T11:53:43;99373.25;;;8.98;47.74
6506;BME280;3286;49.858;8.768;2023-03-15T11:56:23;99376.97;;;8.86;47.88
6506;BME280;3286;49.858;8.768;2023-03-15T11:59:04;99383.75;;;8.89;48.01
6506;BME280;3286;49.858;8.768;2023-03-15T12:01:34;99384.34;;;8.30;49.55
6506;BME280;3286;49.858;8.768;2023-03-15T12:07:35;99398.03;;;7.81;50.42
6506;BME280;3286;49.858;8.768;2023-03-15T12:13:16;99379.63;;;9.06;50.26
6506;BME280;3286;49.858;8.768;2023-03-15T12:15:46;99388.97;;;9.59;48.19
6506;BME280;3286;49.858;8.768;2023-03-15T12:18:16;99383.28;;;9.64;47.61
6506;BME280;3286;49.858;8.768;2023-03-15T12:20:49;99383.75;;;8.79;48.64
6506;BME280;3286;49.858;8.768;2023-03-15T12:23:32;99394.31;;;7.63;51.30
6506;BME280;3286;49.858;8.768;2023-03-15T12:26:05;99398.03;;;8.03;50.16
6506;BME280;3286;49.858;8.768;2023-03-15T12:28:37;99399.47;;;6.65;52.97
6506;BME280;3286;49.858;8.768;2023-03-15T12:31:08;99400.34;;;8.38;48.75
6506;BME280;3286;49.858;8.768;2023-03-15T12:33:44;99396.63;;;8.72;48.15
6506;BME280;3286;49.858;8.768;2023-03-15T12:36:18;99404.78;;;9.59;46.32
6506;BME280;3286;49.858;8.768;2023-03-15T12:38:57;99413.59;;;8.58;48.20
6506;BME280;3286;49.858;8.768;2023-03-15T12:41:35;99402.53;;;9.05;47.72
6506;BME280;3286;49.858;8.768;2023-03-15T12:44:26;99412.69;;;8.69;48.06
6506;BME280;3286;49.858;8.768;2023-03-15T12:47:02;99407.25;;;8.61;48.50
6506;BME280;3286;49.858;8.768;2023-03-15T12:49:35;99416.72;;;8.21;49.84
6506;BME280;3286;49.858;8.768;2023-03-15T12:52:05;99418.09;;;8.46;51.36
6506;BME280;3286;49.858;8.768;2023-03-15T12:54:38;99416.84;;;8.72;50.87
6506;BME280;3286;49.858;8.768;2023-03-15T12:57:09;99409.66;;;8.83;50.60
6506;BME280;3286;49.858;8.768;2023-03-15T12:59:47;99403.41;;;9.65;48.93
6506;BME280;3286;49.858;8.768;2023-03-15T13:02:24;99400.88;;;9.24;49.16
6506;BME280;3286;49.858;8.768;2023-03-15T13:04:59;99398.00;;;9.66;49.33
6506;BME280;3286;49.858;8.768;2023-03-15T13:07:34;99404.25;;;9.85;48.83
6506;BME280;3286;49.858;8.768;2023-03-15T13:10:35;99392.16;;;10.50;45.81
6506;BME280;3286;49.858;8.768;2023-03-15T13:13:09;99392.47;;;10.27;45.28
6506;BME280;3286;49.858;8.768;2023-03-15T13:15:43;99394.72;;;10.12;45.79
6506;BME280;3286;49.858;8.768;2023-03-15T13:18:20;99407.25;;;8.39;49.82
6506;BME280;3286;49.858;8.768;2023-03-15T13:20:59;99404.84;;;8.26;51.23
6506;BME280;3286;49.858;8.768;2023-03-15T13:23:31;99400.47;;;9.88;47.81
6506;BME280;3286;49.858;8.768;2023-03-15T13:26:21;99400.25;;;10.28;46.00
6506;BME280;3286;49.858;8.768;2023-03-15T13:28:59;99403.41;;;8.75;47.43
6506;BME280;3286;49.858;8.768;2023-03-15T13:31:29;99393.31;;;8.90;47.68
6506;BME280;3286;49.858;8.768;2023-03-15T13:33:57;99400.34;;;8.48;49.67
6506;BME280;3286;49.858;8.768;2023-03-15T13:36:39;99403.44;;;7.80;49.12
6506;BME280;3286;49.858;8.768;2023-03-15T13:39:15;99405.94;;;7.81;50.03
6506;BME280;3286;49.858;8.768;2023-03-15T13:41:42;99407.88;;;7.14;50.57
6506;BME280;3286;49.858;8.768;2023-03-15T13:44:15;99399.19;;;8.10;48.02
6506;BME280;3286;49.858;8.768;2023-03-15T13:46:45;99393.69;;;8.44;47.35
6506;BME280;3286;49.858;8.768;2023-03-15T13:49:12;99397.28;;;8.64;47.01